createdAt,value
2023-10-25T00:02:50.041Z,1.37
2023-10-25T00:05:52.888Z,1.53
2023-10-25T00:08:56.987Z,1.25
2023-10-25T00:11:59.761Z,1.60
2023-10-25T00:15:03.156Z,1.20
2023-10-25T00:18:06.097Z,1.20
2023-10-25T00:21:09.195Z,1.40
2023-10-25T00:24:13.598Z,1.60
2023-10-25T00:27:16.410Z,1.90
2023-10-25T00:30:19.189Z,1.30
2023-10-25T00:33:21.921Z,1.20
2023-10-25T00:36:24.866Z,1.63
2023-10-25T00:39:29.667Z,1.17
2023-10-25T00:42:32.517Z,1.17
2023-10-25T00:45:35.943Z,1.30
2023-10-25T00:48:40.879Z,1.00
2023-10-25T00:51:43.857Z,1.20
2023-10-25T00:54:48.675Z,1.57
2023-10-25T00:57:51.766Z,1.10
2023-10-25T01:00:56.172Z,1.17
2023-10-25T01:03:59.259Z,1.20
2023-10-25T01:07:02.289Z,1.23
2023-10-25T01:10:07.891Z,1.20
2023-10-25T01:13:10.808Z,1.30
2023-10-25T01:16:13.719Z,1.50
2023-10-25T01:19:16.574Z,1.60
2023-10-25T01:22:19.381Z,1.20
2023-10-25T01:25:23.430Z,1.43
2023-10-25T01:28:26.140Z,1.63
2023-10-25T01:31:29.079Z,1.50
2023-10-25T01:34:31.841Z,1.80
2023-10-25T01:37:34.604Z,1.33
2023-10-25T01:40:38.998Z,1.00
2023-10-25T01:43:41.739Z,1.60
2023-10-25T01:46:44.454Z,1.60
2023-10-25T01:49:47.360Z,1.37
2023-10-25T01:52:50.127Z,1.40
2023-10-25T01:55:54.303Z,1.70
2023-10-25T01:58:56.986Z,1.27
2023-10-25T02:01:59.730Z,1.67
2023-10-25T02:05:02.615Z,1.30
2023-10-25T02:08:05.727Z,1.50
2023-10-25T02:11:09.976Z,1.20
2023-10-25T02:14:12.865Z,1.63
2023-10-25T02:17:16.102Z,1.27
2023-10-25T02:20:18.777Z,1.20
2023-10-25T02:23:21.415Z,1.30
2023-10-25T02:26:25.496Z,1.63
2023-10-25T02:29:28.214Z,1.60
2023-10-25T02:32:30.920Z,1.47
2023-10-25T02:35:33.678Z,1.50
2023-10-25T02:38:36.558Z,1.20
2023-10-25T02:41:40.543Z,1.30
2023-10-25T02:44:43.270Z,1.30
2023-10-25T02:47:45.993Z,1.40
2023-10-25T02:50:48.738Z,1.60
2023-10-25T02:53:53.620Z,1.20
2023-10-25T02:56:57.656Z,1.80
2023-10-25T03:00:00.616Z,1.30
2023-10-25T03:03:03.410Z,1.30
2023-10-25T03:06:06.297Z,1.17
2023-10-25T03:09:10.998Z,1.13
2023-10-25T03:12:15.008Z,1.53
2023-10-25T03:15:17.754Z,1.23
2023-10-25T03:18:21.112Z,1.43
2023-10-25T03:21:24.386Z,2.20
2023-10-25T03:24:27.049Z,1.17
2023-10-25T03:27:31.705Z,1.57
2023-10-25T03:30:34.584Z,1.37
2023-10-25T03:33:38.210Z,1.50
2023-10-25T03:36:40.983Z,1.40
2023-10-25T03:39:44.093Z,1.47
2023-10-25T03:42:48.280Z,1.90
2023-10-25T03:45:51.062Z,1.50
2023-10-25T03:48:54.034Z,1.40
2023-10-25T03:51:56.930Z,1.90
2023-10-25T03:54:59.797Z,2.05
2023-10-25T03:58:04.124Z,2.30
2023-10-25T04:01:10.799Z,2.38
2023-10-25T04:04:14.986Z,2.27
2023-10-25T04:07:17.826Z,2.47
2023-10-25T04:10:20.662Z,2.10
2023-10-25T04:13:25.065Z,2.30
2023-10-25T04:16:28.839Z,2.13
2023-10-25T04:19:31.682Z,2.20
2023-10-25T04:22:36.380Z,2.37
2023-10-25T04:25:39.215Z,2.30
2023-10-25T04:28:44.848Z,2.20
2023-10-25T04:31:47.751Z,1.90
2023-10-25T04:34:50.700Z,1.90
2023-10-25T04:37:53.820Z,1.93
2023-10-25T04:40:56.761Z,1.70
2023-10-25T04:44:00.992Z,1.73
2023-10-25T04:47:03.837Z,1.80
2023-10-25T04:50:07.369Z,1.67
2023-10-25T04:53:10.304Z,1.57
2023-10-25T04:56:13.020Z,1.70
2023-10-25T04:59:17.132Z,2.00
2023-10-25T05:02:20.720Z,1.43
2023-10-25T05:05:23.588Z,1.73
2023-10-25T05:08:27.248Z,1.97
2023-10-25T05:11:32.897Z,2.00
2023-10-25T05:14:38.071Z,1.67
2023-10-25T05:17:42.396Z,1.80
2023-10-25T05:20:45.863Z,2.20
2023-10-25T05:23:49.382Z,1.87
2023-10-25T05:26:52.819Z,1.70
2023-10-25T05:30:00.547Z,1.60
2023-10-25T05:33:08.120Z,1.80
2023-10-25T05:36:12.459Z,2.10
2023-10-25T05:39:15.946Z,1.60
2023-10-25T05:42:21.752Z,1.93
2023-10-25T05:45:25.993Z,1.57
2023-10-25T05:48:29.346Z,1.73
2023-10-25T05:51:32.776Z,1.20
2023-10-25T05:54:36.510Z,1.80
2023-10-25T05:57:39.840Z,1.70
2023-10-25T06:00:50.019Z,1.97
2023-10-25T06:03:58.058Z,2.17
2023-10-25T06:07:01.642Z,2.67
2023-10-25T06:10:05.461Z,1.97
2023-10-25T06:13:08.888Z,2.23
2023-10-25T06:16:14.772Z,1.88
2023-10-25T06:19:17.842Z,1.95
2023-10-25T06:22:21.391Z,1.88
2023-10-25T06:25:25.630Z,1.65
2023-10-25T06:28:28.691Z,1.90
2023-10-25T06:31:33.017Z,1.83
2023-10-25T06:34:38.249Z,1.70
2023-10-25T06:37:41.548Z,2.08
2023-10-25T06:40:44.917Z,1.63
2023-10-25T06:43:48.245Z,1.92
2023-10-25T06:46:53.254Z,2.20
2023-10-25T06:49:56.992Z,1.98
2023-10-25T06:53:00.482Z,2.20
2023-10-25T06:56:03.870Z,1.83
2023-10-25T06:59:09.134Z,1.80
2023-10-25T07:02:25.863Z,1.95
2023-10-25T07:05:30.121Z,2.75
2023-10-25T07:08:33.739Z,2.67
2023-10-25T07:11:36.479Z,2.55
2023-10-25T07:14:39.319Z,2.40
2023-10-25T07:17:44.855Z,2.25
2023-10-25T07:20:47.770Z,2.53
2023-10-25T07:23:50.489Z,2.40
2023-10-25T07:26:53.258Z,2.40
2023-10-25T07:29:56.346Z,2.60
2023-10-25T07:33:00.588Z,2.13
2023-10-25T07:36:04.364Z,1.88
2023-10-25T07:39:07.328Z,2.42
2023-10-25T07:42:10.134Z,2.45
2023-10-25T07:45:12.922Z,2.40
2023-10-25T07:48:18.085Z,2.25
2023-10-25T07:51:20.843Z,2.00
2023-10-25T07:54:23.927Z,2.03
2023-10-25T07:58:12.573Z,2.28
2023-10-25T08:00:51.696Z,2.10
2023-10-25T08:03:56.082Z,2.15
2023-10-25T08:06:59.294Z,2.20
2023-10-25T08:10:02.921Z,2.00
2023-10-25T08:13:05.689Z,1.63
2023-10-25T08:16:08.731Z,2.08
2023-10-25T08:19:13.646Z,1.92
2023-10-25T08:22:16.465Z,1.65
2023-10-25T08:25:19.240Z,2.00
2023-10-25T08:28:22.422Z,1.98
2023-10-25T08:31:26.085Z,2.13
2023-10-25T08:34:30.203Z,2.28
2023-10-25T08:37:32.867Z,2.13
2023-10-25T08:40:35.844Z,2.03
2023-10-25T08:43:40.195Z,2.80
2023-10-25T08:46:43.980Z,2.08
2023-10-25T08:49:48.222Z,1.90
2023-10-25T08:52:51.378Z,1.88
2023-10-25T08:55:55.077Z,1.83
2023-10-25T08:59:01.031Z,2.20
2023-10-25T09:02:05.828Z,1.73
2023-10-25T09:05:10.313Z,1.83
2023-10-25T09:08:16.444Z,2.17
2023-10-25T09:11:19.437Z,1.80
2023-10-25T09:14:22.194Z,1.60
2023-10-25T09:17:25.385Z,1.55
2023-10-25T09:20:30.005Z,1.95
2023-10-25T09:23:34.846Z,1.48
2023-10-25T09:26:40.844Z,1.73
2023-10-25T09:29:44.347Z,1.98
2023-10-25T09:32:47.600Z,1.60
2023-10-25T09:35:52.164Z,2.35
2023-10-25T09:38:55.337Z,1.83
2023-10-25T09:42:03.533Z,1.70
2023-10-25T09:45:12.089Z,2.22
2023-10-25T09:48:16.951Z,1.92
2023-10-25T09:51:35.216Z,2.30
2023-10-25T09:54:39.340Z,2.10
2023-10-25T09:57:43.830Z,2.35
2023-10-25T10:00:47.036Z,1.88
2023-10-25T10:03:56.983Z,2.60
2023-10-25T10:07:10.454Z,1.95
2023-10-25T10:10:23.443Z,2.17
2023-10-25T10:13:29.434Z,2.05
2023-10-25T10:24:47.496Z,1.77
2023-10-25T10:28:04.399Z,1.85
2023-10-25T10:31:08.949Z,1.88
2023-10-25T10:34:11.883Z,1.77
2023-10-25T10:37:17.423Z,1.40
2023-10-25T10:40:21.493Z,1.55
2023-10-25T10:43:24.304Z,1.50
2023-10-25T10:46:32.201Z,1.60
2023-10-25T10:49:38.981Z,1.25
2023-10-25T10:52:42.837Z,1.52
2023-10-25T10:55:48.098Z,1.48
2023-10-25T10:58:50.854Z,1.42
2023-10-25T11:01:54.704Z,1.20
2023-10-25T11:04:57.475Z,1.27
2023-10-25T11:08:00.132Z,1.30
2023-10-25T11:11:04.459Z,1.30
2023-10-25T11:14:15.988Z,1.10
2023-10-25T11:17:18.874Z,1.10
2023-10-25T11:20:21.826Z,1.20
2023-10-25T11:23:24.603Z,0.93
2023-10-25T11:26:29.248Z,0.93
2023-10-25T11:29:34.924Z,0.80
2023-10-25T11:32:38.004Z,0.90
2023-10-25T11:35:44.616Z,1.00
2023-10-25T11:38:47.618Z,0.80
2023-10-25T11:41:50.607Z,0.90
2023-10-25T11:44:57.486Z,0.90
2023-10-25T11:48:01.364Z,0.70
2023-10-25T11:51:05.379Z,0.98
2023-10-25T11:54:17.851Z,0.90
2023-10-25T11:57:21.525Z,0.80
2023-10-25T12:00:26.833Z,0.70
2023-10-25T12:03:29.899Z,0.60
2023-10-25T12:06:33.051Z,0.60
2023-10-25T12:09:39.220Z,0.80
2023-10-25T12:12:43.070Z,0.60
2023-10-25T12:15:47.190Z,0.47
2023-10-25T12:18:50.465Z,0.50
2023-10-25T12:21:55.273Z,0.70
2023-10-25T12:24:57.947Z,0.65
2023-10-25T12:28:00.726Z,0.55
2023-10-25T12:31:04.946Z,0.50
2023-10-25T12:34:07.787Z,0.60
2023-10-25T12:37:11.238Z,0.50
2023-10-25T12:40:14.332Z,0.38
2023-10-25T12:43:17.222Z,0.52
2023-10-25T12:46:21.454Z,0.70
2023-10-25T12:49:24.398Z,0.63
2023-10-25T12:52:27.236Z,0.50
2023-10-25T12:55:30.097Z,0.60
2023-10-25T12:58:32.816Z,0.40
2023-10-25T13:01:36.997Z,0.50
2023-10-25T13:04:40.562Z,0.50
2023-10-25T13:07:45.578Z,0.30
2023-10-25T13:10:48.414Z,0.70
2023-10-25T13:13:51.335Z,0.50
2023-10-25T13:17:01.603Z,0.40
2023-10-25T13:20:16.031Z,0.52
2023-10-25T13:23:19.078Z,0.80
2023-10-25T13:26:22.559Z,0.63
2023-10-25T13:29:25.652Z,0.50
2023-10-25T13:32:30.189Z,0.35
2023-10-25T13:35:33.367Z,0.35
2023-10-25T13:38:36.513Z,0.52
2023-10-25T13:41:39.485Z,0.60
2023-10-25T13:44:42.435Z,0.70
2023-10-25T13:47:46.772Z,0.50
2023-10-25T13:50:49.757Z,0.52
2023-10-25T13:53:52.728Z,0.40
2023-10-25T13:56:55.745Z,0.45
2023-10-25T14:00:00.107Z,0.30
2023-10-25T14:03:04.789Z,0.60
2023-10-25T14:06:07.923Z,0.65
2023-10-25T14:09:12.148Z,0.60
2023-10-25T14:12:15.196Z,0.20
2023-10-25T14:15:18.245Z,0.47
2023-10-25T14:18:22.616Z,0.40
2023-10-25T14:21:25.945Z,0.47
2023-10-25T14:24:33.783Z,0.82
2023-10-25T14:27:40.646Z,0.57
2023-10-25T14:30:44.928Z,0.40
2023-10-25T14:33:49.295Z,0.45
2023-10-25T14:36:52.113Z,0.45
2023-10-25T14:39:54.929Z,0.40
2023-10-25T14:42:57.926Z,0.55
2023-10-25T14:46:00.733Z,0.55
2023-10-25T14:49:06.729Z,0.57
2023-10-25T14:52:10.095Z,0.60
2023-10-25T14:55:13.497Z,0.35
2023-10-25T14:58:16.412Z,0.40
2023-10-25T15:01:19.966Z,0.45
2023-10-25T15:04:26.950Z,0.50
2023-10-25T15:07:30.105Z,0.50
2023-10-25T15:10:34.384Z,0.60
2023-10-25T15:13:37.150Z,0.73
2023-10-25T15:16:40.122Z,0.45
2023-10-25T15:19:44.810Z,0.60
2023-10-25T15:22:47.757Z,0.50
2023-10-25T15:25:50.902Z,0.40
2023-10-25T15:28:53.759Z,0.32
2023-10-25T15:31:57.046Z,0.38
2023-10-25T15:35:01.276Z,0.43
2023-10-25T15:38:04.077Z,0.40
2023-10-25T15:41:17.924Z,0.57
2023-10-25T15:44:20.746Z,0.43
2023-10-25T15:47:24.019Z,0.57
2023-10-25T15:50:28.182Z,0.77
2023-10-25T15:53:31.017Z,0.55
2023-10-25T15:56:34.001Z,0.60
2023-10-25T15:59:36.916Z,0.60
2023-10-25T16:02:40.186Z,0.52
2023-10-25T16:05:45.766Z,0.75
2023-10-25T16:08:48.531Z,0.40
2023-10-25T16:11:51.440Z,0.75
2023-10-25T16:14:54.269Z,0.52
2023-10-25T16:17:57.231Z,1.00
2023-10-25T16:21:04.838Z,1.00
2023-10-25T16:24:08.694Z,1.27
2023-10-25T16:27:11.545Z,1.30
2023-10-25T16:30:15.040Z,0.50
2023-10-25T16:33:18.032Z,0.45
2023-10-25T16:36:22.548Z,0.55
2023-10-25T16:39:25.425Z,0.50
2023-10-25T16:42:28.382Z,0.60
2023-10-25T16:45:31.285Z,0.50
2023-10-25T16:48:36.718Z,0.40
2023-10-25T16:51:40.981Z,0.50
2023-10-25T16:54:43.849Z,0.22
2023-10-25T16:57:46.736Z,0.38
2023-10-25T17:00:49.644Z,0.30
2023-10-25T17:03:52.705Z,1.00
2023-10-25T17:06:57.066Z,0.30
2023-10-25T17:10:00.275Z,0.70
2023-10-25T17:13:03.012Z,0.35
2023-10-25T17:16:07.403Z,0.25
2023-10-25T17:19:10.243Z,0.38
2023-10-25T17:22:14.595Z,0.47
2023-10-25T17:25:17.677Z,0.40
2023-10-25T17:28:20.918Z,0.40
2023-10-25T17:31:24.167Z,0.50
2023-10-25T17:34:27.078Z,0.40
2023-10-25T17:37:31.301Z,0.50
2023-10-25T17:40:34.182Z,0.50
2023-10-25T17:43:37.540Z,1.60
2023-10-25T17:46:40.957Z,0.60
2023-10-25T17:49:43.816Z,1.00
2023-10-25T17:52:49.018Z,1.02
2023-10-25T17:55:51.858Z,0.60
2023-10-25T17:58:54.773Z,1.10
2023-10-25T18:01:57.485Z,1.98
2023-10-25T18:05:00.316Z,0.75
2023-10-25T18:08:04.676Z,1.20
2023-10-25T18:11:12.224Z,1.50
2023-10-25T18:14:15.755Z,0.90
2023-10-25T18:17:18.662Z,0.60
2023-10-25T18:20:21.539Z,0.93
2023-10-25T18:23:27.118Z,0.82
2023-10-25T18:26:30.010Z,0.40
2023-10-25T18:29:33.416Z,0.57
2023-10-25T18:32:39.003Z,0.70
2023-10-25T18:35:43.097Z,1.20
2023-10-25T18:38:47.521Z,0.60
2023-10-25T18:41:50.487Z,0.98
2023-10-25T18:44:56.250Z,9.63
2023-10-25T18:47:59.187Z,0.70
2023-10-25T18:51:06.633Z,0.50
2023-10-25T18:54:11.781Z,0.40
2023-10-25T18:57:17.199Z,0.40
2023-10-25T19:00:22.092Z,0.50
2023-10-25T19:03:28.822Z,0.60
2023-10-25T19:06:36.736Z,0.30
2023-10-25T19:09:49.991Z,0.30
2023-10-25T19:12:53.066Z,0.20
2023-10-25T19:15:56.335Z,0.32
2023-10-25T19:18:59.092Z,0.40
2023-10-25T19:22:01.869Z,0.30
2023-10-25T19:25:06.984Z,0.28
2023-10-25T19:28:09.809Z,0.20
2023-10-25T19:31:12.645Z,0.38
2023-10-25T19:34:16.005Z,0.30
2023-10-25T19:37:18.821Z,0.47
2023-10-25T19:40:23.446Z,0.40
2023-10-25T19:43:26.179Z,0.17
2023-10-25T19:46:31.893Z,0.22
2023-10-25T19:49:35.816Z,0.43
2023-10-25T19:52:38.611Z,0.30
2023-10-25T19:55:42.707Z,0.50
2023-10-25T19:58:45.356Z,0.57
2023-10-25T20:01:48.204Z,0.35
2023-10-25T20:04:51.024Z,1.00
2023-10-25T20:07:53.722Z,0.50
2023-10-25T20:11:01.581Z,0.32
2023-10-25T20:14:04.352Z,0.40
2023-10-25T20:17:07.106Z,0.40
2023-10-25T20:20:10.907Z,0.30
2023-10-25T20:23:13.954Z,0.45
2023-10-25T20:26:32.943Z,0.47
2023-10-25T20:29:40.249Z,0.52
2023-10-25T20:32:43.083Z,0.40
2023-10-25T20:35:45.840Z,0.32
2023-10-25T20:38:49.135Z,0.30
2023-10-25T20:41:53.487Z,0.20
2023-10-25T20:44:56.344Z,0.30
2023-10-25T20:47:59.200Z,0.30
2023-10-25T20:51:03.838Z,0.45
2023-10-25T20:54:06.923Z,0.50
2023-10-25T20:57:11.140Z,0.32
2023-10-25T21:00:15.174Z,0.30
2023-10-25T21:03:18.306Z,0.30
2023-10-25T21:06:21.309Z,0.17
2023-10-25T21:09:24.289Z,0.13
2023-10-25T21:12:28.440Z,0.30
2023-10-25T21:15:34.424Z,0.20
2023-10-25T21:18:37.366Z,0.30
2023-10-25T21:21:40.105Z,0.20
2023-10-25T21:24:43.001Z,0.40
2023-10-25T21:27:47.284Z,0.10
2023-10-25T21:30:50.090Z,0.30
2023-10-25T21:33:53.009Z,0.20
2023-10-25T21:36:55.916Z,0.10
2023-10-25T21:39:58.688Z,0.20
2023-10-25T21:43:04.073Z,0.20
2023-10-25T21:46:07.157Z,0.38
2023-10-25T21:49:10.141Z,0.30
2023-10-25T21:52:12.920Z,0.20
2023-10-25T21:55:15.865Z,0.40
2023-10-25T21:59:47.049Z,0.10
2023-10-25T22:01:46.841Z,0.20
2023-10-25T22:04:49.679Z,0.30
2023-10-25T22:07:52.410Z,0.30
2023-10-25T22:10:55.261Z,0.20
2023-10-25T22:13:59.345Z,0.10
2023-10-25T22:17:02.552Z,0.30
2023-10-25T22:20:05.915Z,0.20
2023-10-25T22:23:08.850Z,0.20
2023-10-25T22:26:11.565Z,0.00
2023-10-25T22:29:17.981Z,0.28
2023-10-25T22:32:20.938Z,0.10
2023-10-25T22:35:24.008Z,0.50
2023-10-25T22:38:26.765Z,0.17
2023-10-25T22:41:29.473Z,0.25
2023-10-25T22:44:33.524Z,0.17
2023-10-25T22:47:36.191Z,0.20
2023-10-25T22:50:39.001Z,0.08
2023-10-25T22:53:41.764Z,0.10
2023-10-25T22:56:44.509Z,0.13
2023-10-25T22:59:48.692Z,0.55
2023-10-25T23:02:51.436Z,0.13
2023-10-25T23:05:55.608Z,0.20
2023-10-25T23:08:58.552Z,0.20
2023-10-25T23:12:01.292Z,0.20
2023-10-25T23:15:06.397Z,0.13
2023-10-25T23:18:09.523Z,0.30
2023-10-25T23:21:12.335Z,0.20
2023-10-25T23:24:15.162Z,0.10
2023-10-25T23:27:18.200Z,0.20
2023-10-25T23:30:22.350Z,0.15
2023-10-25T23:33:25.109Z,0.28
2023-10-25T23:36:27.892Z,0.10
2023-10-25T23:39:30.607Z,0.20
2023-10-25T23:42:33.337Z,0.30
2023-10-25T23:45:37.439Z,0.20
2023-10-25T23:48:40.372Z,0.30
2023-10-25T23:51:43.135Z,0.20
2023-10-25T23:54:54.040Z,0.38
2023-10-25T23:57:58.669Z,0.50
